createdAt,value
2022-12-22T00:02:38.618Z,99441.81
2022-12-22T00:05:32.053Z,99437.56
2022-12-22T00:08:17.316Z,99434.44
2022-12-22T00:11:03.410Z,99429.13
2022-12-22T00:13:48.523Z,99436.03
2022-12-22T00:16:35.696Z,99425.41
2022-12-22T00:19:21.323Z,99418.50
2022-12-22T00:22:07.541Z,99419.53
2022-12-22T00:24:52.700Z,99412.34
2022-12-22T00:27:45.773Z,99363.50
2022-12-22T00:30:32.994Z,99404.72
2022-12-22T00:33:22.066Z,99402.84
2022-12-22T00:36:08.210Z,99394.09
2022-12-22T00:38:53.842Z,99393.78
2022-12-22T00:41:40.014Z,99376.19
2022-12-22T00:44:25.811Z,99370.06
2022-12-22T00:47:11.173Z,99379.75
2022-12-22T00:50:04.005Z,99362.50
2022-12-22T00:52:50.035Z,99352.47
2022-12-22T00:55:38.125Z,99359.25
2022-12-22T00:58:29.751Z,99356.06
2022-12-22T01:01:15.414Z,99345.31
2022-12-22T01:04:00.780Z,99321.03
2022-12-22T01:06:50.785Z,99340.31
2022-12-22T01:09:36.430Z,99350.50
2022-12-22T01:12:28.348Z,99351.06
2022-12-22T01:15:13.661Z,99344.16
2022-12-22T01:17:59.298Z,99340.44
2022-12-22T01:20:44.938Z,99318.03
2022-12-22T01:23:32.117Z,99310.06
2022-12-22T01:26:17.212Z,99319.22
2022-12-22T01:29:02.851Z,99304.28
2022-12-22T01:31:50.515Z,99318.22
2022-12-22T01:34:36.683Z,99296.84
2022-12-22T01:37:21.771Z,99306.53
2022-12-22T01:40:08.665Z,99287.63
2022-12-22T01:42:53.840Z,99284.97
2022-12-22T01:45:42.860Z,99297.56
2022-12-22T01:48:30.887Z,99298.16
2022-12-22T01:51:16.979Z,99300.81
2022-12-22T01:54:02.268Z,99292.59
2022-12-22T01:56:50.631Z,99278.94
2022-12-22T01:59:35.929Z,99284.88
2022-12-22T02:02:24.610Z,99269.38
2022-12-22T02:05:11.181Z,99291.78
2022-12-22T02:08:15.021Z,99283.31
2022-12-22T02:11:18.889Z,99267.88
2022-12-22T02:14:18.536Z,99239.31
2022-12-22T02:17:13.700Z,99271.66
2022-12-22T02:20:21.591Z,99257.56
2022-12-22T02:23:19.847Z,99264.22
2022-12-22T02:26:13.820Z,99259.72
2022-12-22T02:29:01.918Z,99252.53
2022-12-22T02:31:54.351Z,99252.25
2022-12-22T02:34:39.476Z,99235.97
2022-12-22T02:37:35.578Z,99244.88
2022-12-22T02:40:23.339Z,99251.31
2022-12-22T02:43:21.338Z,99209.34
2022-12-22T02:46:16.402Z,99238.03
2022-12-22T02:49:09.550Z,99238.78
2022-12-22T02:52:02.960Z,99242.81
2022-12-22T02:54:51.403Z,99229.75
2022-12-22T02:57:37.478Z,99230.75
2022-12-22T03:00:26.120Z,99232.66
2022-12-22T03:03:13.006Z,99230.00
2022-12-22T03:05:59.414Z,99234.53
2022-12-22T03:08:44.473Z,99200.38
2022-12-22T03:11:30.014Z,99219.88
2022-12-22T03:14:16.241Z,99220.19
2022-12-22T03:17:02.544Z,99222.03
2022-12-22T03:19:49.859Z,99211.09
2022-12-22T03:22:35.036Z,99191.09
2022-12-22T03:25:20.711Z,99211.38
2022-12-22T03:27:49.071Z,99215.88
2022-12-22T03:30:17.404Z,99193.19
2022-12-22T03:32:45.301Z,99207.34
2022-12-22T03:35:15.500Z,99192.13
2022-12-22T03:37:43.811Z,99208.44
2022-12-22T03:40:13.284Z,99199.91
2022-12-22T03:42:58.738Z,99201.53
2022-12-22T03:45:44.271Z,99206.31
2022-12-22T03:48:12.508Z,99200.97
2022-12-22T03:50:42.236Z,99176.66
2022-12-22T03:53:10.117Z,99178.75
2022-12-22T03:55:38.312Z,99212.44
2022-12-22T03:58:06.569Z,99193.44
2022-12-22T04:00:34.520Z,99195.59
2022-12-22T04:03:03.061Z,99218.75
2022-12-22T04:05:31.370Z,99217.75
2022-12-22T04:08:00.674Z,99221.19
2022-12-22T04:10:46.591Z,99189.63
2022-12-22T04:13:14.780Z,99214.28
2022-12-22T04:15:42.808Z,99191.56
2022-12-22T04:18:11.299Z,99211.63
2022-12-22T04:20:39.177Z,99219.66
2022-12-22T04:23:09.025Z,99206.81
2022-12-22T04:25:37.329Z,99198.75
2022-12-22T04:28:05.469Z,99165.13
2022-12-22T04:30:33.890Z,99218.22
2022-12-22T04:33:02.186Z,99222.25
2022-12-22T04:35:29.938Z,99224.44
2022-12-22T04:37:58.463Z,99239.31
2022-12-22T04:40:28.203Z,99216.31
2022-12-22T04:42:56.141Z,99239.88
2022-12-22T04:45:24.518Z,99200.53
2022-12-22T04:47:52.844Z,99235.53
2022-12-22T04:50:20.693Z,99234.66
2022-12-22T04:52:49.204Z,99214.63
2022-12-22T04:55:17.246Z,99241.88
2022-12-22T04:57:46.897Z,99271.69
2022-12-22T05:00:16.207Z,99249.28
2022-12-22T05:02:44.363Z,99267.94
2022-12-22T05:05:12.839Z,99223.28
2022-12-22T05:07:40.857Z,99271.88
2022-12-22T05:10:10.320Z,99241.16
2022-12-22T05:12:57.848Z,99241.38
2022-12-22T05:15:32.797Z,99280.91
2022-12-22T05:18:02.791Z,99285.16
2022-12-22T05:20:31.553Z,99285.97
2022-12-22T05:23:00.108Z,99294.44
2022-12-22T05:25:34.404Z,99294.97
2022-12-22T05:28:03.143Z,99300.81
2022-12-22T05:30:32.755Z,99277.53
2022-12-22T05:33:00.673Z,99309.06
2022-12-22T05:35:28.709Z,99292.16
2022-12-22T05:37:57.017Z,99301.50
2022-12-22T05:40:25.323Z,99328.66
2022-12-22T05:42:53.265Z,99298.97
2022-12-22T05:45:22.416Z,99270.56
2022-12-22T05:47:53.724Z,99320.34
2022-12-22T05:50:25.144Z,99335.75
2022-12-22T05:52:53.649Z,99330.63
2022-12-22T05:55:21.927Z,99355.78
2022-12-22T05:57:50.412Z,99328.41
2022-12-22T06:00:19.528Z,99322.16
2022-12-22T06:02:47.548Z,99358.31
2022-12-22T06:05:17.399Z,99347.22
2022-12-22T06:07:45.337Z,99369.94
2022-12-22T06:10:14.731Z,99382.00
2022-12-22T06:12:43.876Z,99381.22
2022-12-22T06:15:15.597Z,99388.59
2022-12-22T06:17:45.175Z,99395.47
2022-12-22T06:20:15.648Z,99391.63
2022-12-22T06:22:45.309Z,99404.72
2022-12-22T06:25:18.123Z,99414.28
2022-12-22T06:27:46.721Z,99360.97
2022-12-22T06:30:15.690Z,99392.47
2022-12-22T06:32:43.914Z,99424.34
2022-12-22T06:35:12.630Z,99431.78
2022-12-22T06:37:40.634Z,99438.09
2022-12-22T06:40:11.309Z,99443.41
2022-12-22T06:43:02.129Z,99435.88
2022-12-22T06:45:34.149Z,99427.28
2022-12-22T06:48:02.501Z,99451.81
2022-12-22T06:50:30.558Z,99474.19
2022-12-22T06:52:59.096Z,99474.97
2022-12-22T06:55:28.891Z,99463.88
2022-12-22T06:57:56.691Z,99461.94
2022-12-22T07:00:26.928Z,99485.75
2022-12-22T07:02:55.363Z,99433.97
2022-12-22T07:05:24.756Z,99506.97
2022-12-22T07:07:53.242Z,99503.25
2022-12-22T07:10:41.602Z,99498.63
2022-12-22T07:13:20.793Z,99509.88
2022-12-22T07:15:55.669Z,99520.50
2022-12-22T07:18:27.964Z,99517.28
2022-12-22T07:20:56.246Z,99532.38
2022-12-22T07:23:23.915Z,99544.84
2022-12-22T07:25:52.026Z,99554.44
2022-12-22T07:28:21.722Z,99558.13
2022-12-22T07:30:49.548Z,99564.22
2022-12-22T07:33:17.900Z,99566.34
2022-12-22T07:35:46.598Z,99556.78
2022-12-22T07:38:14.366Z,99564.72
2022-12-22T07:40:43.527Z,99570.03
2022-12-22T07:43:12.201Z,99574.75
2022-12-22T07:45:41.230Z,99583.56
2022-12-22T07:48:29.318Z,99586.22
2022-12-22T07:51:02.409Z,99574.94
2022-12-22T07:53:30.618Z,99596.09
2022-12-22T07:55:58.849Z,99613.06
2022-12-22T07:58:26.463Z,99622.06
2022-12-22T08:01:00.431Z,99628.44
2022-12-22T08:03:29.006Z,99636.84
2022-12-22T08:05:56.770Z,99658.34
2022-12-22T08:08:24.958Z,99657.69
2022-12-22T08:10:55.445Z,99676.25
2022-12-22T08:13:23.391Z,99683.38
2022-12-22T08:15:51.711Z,99679.63
2022-12-22T08:18:20.890Z,99685.38
2022-12-22T08:20:51.923Z,99668.13
2022-12-22T08:23:20.410Z,99701.19
2022-12-22T08:25:53.591Z,99691.41
2022-12-22T08:28:21.648Z,99686.69
2022-12-22T08:30:49.671Z,99709.63
2022-12-22T08:33:19.177Z,99727.75
2022-12-22T08:35:48.304Z,99724.28
2022-12-22T08:38:16.046Z,99723.94
2022-12-22T08:40:46.654Z,99714.72
2022-12-22T08:43:14.703Z,99721.88
2022-12-22T08:45:43.849Z,99719.66
2022-12-22T08:48:11.637Z,99718.19
2022-12-22T08:50:39.868Z,99724.97
2022-12-22T08:53:29.721Z,99725.22
2022-12-22T08:55:58.550Z,99735.94
2022-12-22T08:58:26.180Z,99748.50
2022-12-22T09:00:54.002Z,99754.06
2022-12-22T09:03:21.866Z,99763.88
2022-12-22T09:05:49.801Z,99765.72
2022-12-22T09:08:18.833Z,99778.97
2022-12-22T09:10:46.454Z,99775.72
2022-12-22T09:13:14.977Z,99766.41
2022-12-22T09:15:42.593Z,99774.13
2022-12-22T09:18:10.467Z,99766.84
2022-12-22T09:20:38.293Z,99782.69
2022-12-22T09:23:05.934Z,99784.50
2022-12-22T09:25:35.843Z,99786.94
2022-12-22T09:28:03.565Z,99798.91
2022-12-22T09:30:31.549Z,99791.19
2022-12-22T09:32:59.413Z,99794.41
2022-12-22T09:35:27.313Z,99791.19
2022-12-22T09:37:55.182Z,99785.88
2022-12-22T09:40:24.627Z,99790.16
2022-12-22T09:42:53.808Z,99790.75
2022-12-22T09:45:21.523Z,99776.66
2022-12-22T09:47:53.721Z,99786.81
2022-12-22T09:50:24.510Z,99804.81
2022-12-22T09:52:56.113Z,99802.97
2022-12-22T09:55:38.328Z,99809.88
2022-12-22T09:58:24.051Z,99810.91
2022-12-22T10:01:02.895Z,99822.56
2022-12-22T10:03:37.932Z,99810.91
2022-12-22T10:06:12.306Z,99823.03
2022-12-22T10:08:42.157Z,99834.09
2022-12-22T10:11:14.696Z,99834.34
2022-12-22T10:13:44.332Z,99836.63
2022-12-22T10:16:21.213Z,99833.84
2022-12-22T10:19:08.110Z,99833.97
2022-12-22T10:21:46.357Z,99828.56
2022-12-22T10:24:18.997Z,99843.53
2022-12-22T10:26:47.085Z,99833.69
2022-12-22T10:29:19.697Z,99848.09
2022-12-22T10:31:59.885Z,99842.47
2022-12-22T10:34:28.159Z,99852.13
2022-12-22T10:37:00.259Z,99848.06
2022-12-22T10:39:30.253Z,99790.97
2022-12-22T10:42:02.808Z,99845.91
2022-12-22T10:44:35.540Z,99860.63
2022-12-22T10:47:17.317Z,99852.88
2022-12-22T10:49:48.143Z,99825.66
2022-12-22T10:52:21.248Z,99837.19
2022-12-22T10:54:52.093Z,99835.50
2022-12-22T10:57:29.969Z,99841.34
2022-12-22T11:00:01.202Z,99848.13
2022-12-22T11:02:33.030Z,99851.81
2022-12-22T11:05:07.916Z,99846.53
2022-12-22T11:07:37.522Z,99826.00
2022-12-22T11:10:18.393Z,99827.03
2022-12-22T11:13:00.304Z,99839.97
2022-12-22T11:15:36.182Z,99835.50
2022-12-22T11:18:12.387Z,99838.13
2022-12-22T11:20:52.051Z,99842.41
2022-12-22T11:23:26.868Z,99835.00
2022-12-22T11:26:04.484Z,99830.56
2022-12-22T11:28:56.023Z,99821.19
2022-12-22T11:31:38.429Z,99824.78
2022-12-22T11:34:21.062Z,99832.28
2022-12-22T11:37:03.494Z,99816.25
2022-12-22T11:39:41.475Z,99825.13
2022-12-22T11:42:26.245Z,99805.53
2022-12-22T11:45:06.512Z,99813.25
2022-12-22T11:47:45.972Z,99811.22
2022-12-22T11:51:02.724Z,99796.91
2022-12-22T11:53:33.074Z,99808.31
2022-12-22T11:56:13.855Z,99795.88
2022-12-22T11:58:55.567Z,99794.38
2022-12-22T12:01:41.223Z,99801.88
2022-12-22T12:04:33.523Z,99775.81
2022-12-22T12:07:26.215Z,99795.19
2022-12-22T12:10:04.702Z,99794.94
2022-12-22T12:12:42.429Z,99792.28
2022-12-22T12:15:24.275Z,99773.63
2022-12-22T12:18:08.634Z,99779.28
2022-12-22T12:20:50.683Z,99765.47
2022-12-22T12:23:37.496Z,99755.53
2022-12-22T12:26:13.248Z,99774.34
2022-12-22T12:28:54.804Z,99769.03
2022-12-22T12:31:29.518Z,99766.13
2022-12-22T12:34:01.078Z,99749.31
2022-12-22T12:36:41.345Z,99746.94
2022-12-22T12:39:17.348Z,99743.59
2022-12-22T12:42:02.965Z,99753.75
2022-12-22T12:44:35.502Z,99736.53
2022-12-22T12:47:21.633Z,99716.50
2022-12-22T12:49:57.758Z,99712.13
2022-12-22T12:53:15.532Z,99721.34
2022-12-22T12:56:10.253Z,99708.97
2022-12-22T12:58:55.108Z,99716.16
2022-12-22T13:01:59.933Z,99710.84
2022-12-22T13:05:21.347Z,99709.31
2022-12-22T13:08:14.374Z,99703.00
2022-12-22T13:10:48.734Z,99702.75
2022-12-22T13:13:48.877Z,99707.81
2022-12-22T13:16:35.544Z,99705.16
2022-12-22T13:19:16.724Z,99696.16
2022-12-22T13:21:55.031Z,99706.44
2022-12-22T13:24:28.915Z,99700.34
2022-12-22T13:27:03.549Z,99692.38
2022-12-22T13:29:44.772Z,99684.41
2022-12-22T13:32:22.640Z,99679.13
2022-12-22T13:37:49.984Z,99684.41
2022-12-22T13:40:20.186Z,99680.13
2022-12-22T13:42:50.464Z,99670.31
2022-12-22T13:45:32.872Z,99665.59
2022-12-22T13:48:02.779Z,99664.81
2022-12-22T13:50:35.231Z,99653.16
2022-12-22T13:53:07.609Z,99655.56
2022-12-22T13:55:36.799Z,99643.81
2022-12-22T13:58:09.770Z,99633.53
2022-12-22T14:00:38.955Z,99635.94
2022-12-22T14:03:27.682Z,99639.44
2022-12-22T14:06:03.744Z,99625.56
2022-12-22T14:08:32.043Z,99632.50
2022-12-22T14:10:59.773Z,99635.13
2022-12-22T14:13:35.110Z,99623.50
2022-12-22T14:16:05.747Z,99619.81
2022-12-22T14:18:34.457Z,99613.81
2022-12-22T14:21:03.572Z,99617.38
2022-12-22T14:23:35.679Z,99613.47
2022-12-22T14:26:07.315Z,99615.66
2022-12-22T14:28:43.158Z,99601.34
2022-12-22T14:31:14.925Z,99608.72
2022-12-22T14:33:52.733Z,99611.25
2022-12-22T14:36:24.039Z,99605.34
2022-12-22T14:38:53.956Z,99604.09
2022-12-22T14:41:43.090Z,99601.19
2022-12-22T14:44:16.207Z,99601.78
2022-12-22T14:46:46.901Z,99606.84
2022-12-22T14:49:17.691Z,99599.13
2022-12-22T14:52:00.759Z,99582.38
2022-12-22T14:54:29.400Z,99591.72
2022-12-22T14:57:03.757Z,99591.56
2022-12-22T14:59:32.348Z,99587.84
2022-12-22T15:02:04.089Z,99592.69
2022-12-22T15:04:32.860Z,99587.94
2022-12-22T15:07:37.582Z,99584.81
2022-12-22T15:10:18.415Z,99583.78
2022-12-22T15:12:47.734Z,99589.66
2022-12-22T15:15:17.468Z,99581.63
2022-12-22T15:17:49.556Z,99560.22
2022-12-22T15:20:21.831Z,99554.41
2022-12-22T15:22:50.598Z,99563.25
2022-12-22T15:25:20.876Z,99547.41
2022-12-22T15:27:49.151Z,99499.69
2022-12-22T15:30:27.766Z,99577.50
2022-12-22T15:32:58.018Z,99524.97
2022-12-22T15:35:31.400Z,99558.03
2022-12-22T15:37:59.309Z,99558.03
2022-12-22T15:40:28.680Z,99566.41
2022-12-22T15:42:57.339Z,99560.31
2022-12-22T15:45:25.230Z,99565.38
2022-12-22T15:47:56.223Z,99550.16
2022-12-22T15:50:32.156Z,99564.44
2022-12-22T15:53:06.666Z,99555.88
2022-12-22T15:55:36.140Z,99546.72
2022-12-22T15:58:05.324Z,99523.16
2022-12-22T16:00:33.255Z,99561.78
2022-12-22T16:03:01.651Z,99563.84
2022-12-22T16:05:30.980Z,99562.50
2022-12-22T16:07:58.795Z,99565.44
2022-12-22T16:10:29.840Z,99561.13
2022-12-22T16:13:01.434Z,99564.66
2022-12-22T16:15:31.164Z,99551.03
2022-12-22T16:17:59.486Z,99524.34
2022-12-22T16:20:33.031Z,99540.75
2022-12-22T16:23:08.654Z,99540.03
2022-12-22T16:25:39.870Z,99525.97
2022-12-22T16:28:08.704Z,99512.13
2022-12-22T16:30:36.534Z,99466.47
2022-12-22T16:33:04.734Z,99494.69
2022-12-22T16:35:33.049Z,99469.56
2022-12-22T16:38:01.404Z,99511.63
2022-12-22T16:40:33.898Z,99458.66
2022-12-22T16:45:52.920Z,99508.19
2022-12-22T16:48:33.537Z,99505.84
2022-12-22T16:51:01.619Z,99462.84
2022-12-22T16:53:29.393Z,99504.97
2022-12-22T16:56:00.961Z,99475.53
2022-12-22T16:58:28.880Z,99493.31
2022-12-22T17:00:57.089Z,99500.22
2022-12-22T17:03:28.379Z,99462.13
2022-12-22T17:06:00.114Z,99500.78
2022-12-22T17:08:32.268Z,99456.56
2022-12-22T17:11:10.407Z,99445.63
2022-12-22T17:13:39.891Z,99423.69
2022-12-22T17:16:08.592Z,99456.63
2022-12-22T17:18:37.364Z,99453.25
2022-12-22T17:21:06.446Z,99479.22
2022-12-22T17:23:39.059Z,99489.13
2022-12-22T17:26:10.906Z,99479.31
2022-12-22T17:28:40.110Z,99475.34
2022-12-22T17:31:08.653Z,99476.81
2022-12-22T17:33:36.368Z,99487.03
2022-12-22T17:36:04.701Z,99483.31
2022-12-22T17:38:32.648Z,99463.88
2022-12-22T17:41:03.133Z,99459.03
2022-12-22T17:43:32.520Z,99442.66
2022-12-22T17:46:00.561Z,99488.47
2022-12-22T17:48:28.804Z,99482.69
2022-12-22T17:50:57.219Z,99475.69
2022-12-22T17:53:25.053Z,99493.94
2022-12-22T17:56:09.805Z,99491.28
2022-12-22T17:58:39.177Z,99474.78
2022-12-22T18:01:07.720Z,99474.19
2022-12-22T18:03:35.705Z,99468.53
2022-12-22T18:06:03.934Z,99452.75
2022-12-22T18:08:32.584Z,99460.72
2022-12-22T18:11:02.464Z,99472.69
2022-12-22T18:13:30.662Z,99471.66
2022-12-22T18:16:00.148Z,99461.78
2022-12-22T18:18:28.608Z,99442.22
2022-12-22T18:21:06.329Z,99452.19
2022-12-22T18:23:37.076Z,99448.72
2022-12-22T18:26:06.621Z,99462.41
2022-12-22T18:28:34.377Z,99430.72
2022-12-22T18:31:04.271Z,99440.63
2022-12-22T18:33:32.315Z,99462.06
2022-12-22T18:36:00.415Z,99461.03
2022-12-22T18:38:30.962Z,99465.31
2022-12-22T18:40:59.029Z,99452.94
2022-12-22T18:43:26.974Z,99440.13
2022-12-22T18:45:55.289Z,99469.56
2022-12-22T18:48:24.978Z,99462.41
2022-12-22T18:50:53.008Z,99454.03
2022-12-22T18:53:28.566Z,99463.06
2022-12-22T18:55:57.249Z,99435.72
2022-12-22T18:58:25.899Z,99470.13
2022-12-22T19:00:56.456Z,99448.44
2022-12-22T19:03:29.290Z,99472.06
2022-12-22T19:05:57.940Z,99473.66
2022-12-22T19:08:27.391Z,99466.75
2022-12-22T19:10:57.190Z,99428.63
2022-12-22T19:13:29.898Z,99464.03
2022-12-22T19:15:59.586Z,99455.59
2022-12-22T19:18:29.478Z,99461.38
2022-12-22T19:20:57.990Z,99432.50
2022-12-22T19:23:26.670Z,99458.25
2022-12-22T19:25:58.092Z,99457.19
2022-12-22T19:28:29.646Z,99456.13
2022-12-22T19:30:57.969Z,99455.41
2022-12-22T19:33:35.114Z,99453.88
2022-12-22T19:36:03.593Z,99427.53
2022-12-22T19:38:32.666Z,99469.66
2022-12-22T19:41:03.329Z,99458.25
2022-12-22T19:43:32.003Z,99459.78
2022-12-22T19:45:59.848Z,99438.78
2022-12-22T19:48:30.651Z,99460.00
2022-12-22T19:50:58.436Z,99438.78
2022-12-22T19:53:26.896Z,99424.16
2022-12-22T19:55:57.042Z,99438.94
2022-12-22T19:58:29.042Z,99453.00
2022-12-22T20:00:57.271Z,99407.75
2022-12-22T20:03:26.917Z,99453.88
2022-12-22T20:05:56.778Z,99453.41
2022-12-22T20:08:24.675Z,99437.81
2022-12-22T20:10:58.327Z,99444.72
2022-12-22T20:13:28.640Z,99451.81
2022-12-22T20:15:56.536Z,99433.22
2022-12-22T20:18:27.541Z,99456.31
2022-12-22T20:21:04.385Z,99441.34
2022-12-22T20:23:36.021Z,99443.28
2022-12-22T20:26:07.372Z,99432.81
2022-12-22T20:28:37.496Z,99450.75
2022-12-22T20:31:07.479Z,99448.09
2022-12-22T20:33:35.961Z,99441.19
2022-12-22T20:36:14.658Z,99439.34
2022-12-22T20:38:43.680Z,99428.56
2022-12-22T20:41:12.598Z,99454.47
2022-12-22T20:43:41.763Z,99453.41
2022-12-22T20:46:15.949Z,99456.88
2022-12-22T20:48:45.847Z,99456.06
2022-12-22T20:51:18.179Z,99446.78
2022-12-22T20:53:47.695Z,99439.00
2022-12-22T20:56:25.425Z,99442.31
2022-12-22T20:58:53.261Z,99437.81
2022-12-22T21:01:24.941Z,99441.81
2022-12-22T21:03:53.241Z,99442.63
2022-12-22T21:06:29.340Z,99431.06
2022-12-22T21:08:59.462Z,99405.34
2022-12-22T21:11:28.558Z,99386.88
2022-12-22T21:13:58.277Z,99458.06
2022-12-22T21:16:28.418Z,99462.06
2022-12-22T21:18:56.871Z,99461.28
2022-12-22T21:21:26.202Z,99418.69
2022-12-22T21:23:54.046Z,99414.50
2022-12-22T21:26:32.065Z,99460.00
2022-12-22T21:29:00.887Z,99445.84
2022-12-22T21:31:29.130Z,99442.31
2022-12-22T21:33:57.039Z,99447.69
2022-12-22T21:36:29.386Z,99461.03
2022-12-22T21:39:00.338Z,99457.19
2022-12-22T21:41:42.550Z,99458.25
2022-12-22T21:44:12.434Z,99472.94
2022-12-22T21:46:40.960Z,99466.28
2022-12-22T21:49:16.413Z,99456.63
2022-12-22T21:51:45.614Z,99473.28
2022-12-22T21:54:13.427Z,99468.94
2022-12-22T21:56:41.540Z,99450.09
2022-12-22T21:59:09.309Z,99472.88
2022-12-22T22:01:37.509Z,99485.88
2022-12-22T22:04:05.933Z,99493.31
2022-12-22T22:06:33.947Z,99449.41
2022-12-22T22:09:05.105Z,99492.84
2022-12-22T22:11:33.210Z,99475.13
2022-12-22T22:14:01.214Z,99494.91
2022-12-22T22:16:29.233Z,99467.06
2022-12-22T22:18:57.396Z,99489.59
2022-12-22T22:21:25.129Z,99432.78
2022-12-22T22:23:54.835Z,99492.00
2022-12-22T22:26:24.126Z,99478.34
2022-12-22T22:28:54.697Z,99491.78
2022-12-22T22:31:22.516Z,99443.84
2022-12-22T22:33:51.012Z,99448.69
2022-12-22T22:36:18.872Z,99477.69
2022-12-22T22:38:47.298Z,99479.47
2022-12-22T22:41:15.109Z,99492.00
2022-12-22T22:43:44.746Z,99496.50
2022-12-22T22:46:12.804Z,99483.59
2022-12-22T22:48:42.893Z,99453.09
2022-12-22T22:51:12.089Z,99502.16
2022-12-22T22:53:43.041Z,99490.25
2022-12-22T22:56:10.989Z,99504.97
2022-12-22T22:58:39.332Z,99463.72
2022-12-22T23:01:13.656Z,99506.66
2022-12-22T23:03:42.166Z,99496.22
2022-12-22T23:06:13.109Z,99509.06
2022-12-22T23:08:41.071Z,99496.34
2022-12-22T23:11:14.775Z,99474.97
2022-12-22T23:13:43.258Z,99502.31
2022-12-22T23:16:13.183Z,99515.00
2022-12-22T23:18:41.245Z,99518.25
2022-12-22T23:21:10.040Z,99517.75
2022-12-22T23:23:38.475Z,99497.88
2022-12-22T23:26:07.187Z,99519.06
2022-12-22T23:28:35.679Z,99509.63
2022-12-22T23:31:03.726Z,99505.13
2022-12-22T23:33:33.706Z,99526.75
2022-12-22T23:36:01.628Z,99521.47
2022-12-22T23:38:30.142Z,99521.19
2022-12-22T23:41:04.037Z,99468.94
2022-12-22T23:43:32.908Z,99528.38
2022-12-22T23:46:00.937Z,99518.72
2022-12-22T23:48:29.323Z,99523.22
2022-12-22T23:50:58.651Z,99519.78
2022-12-22T23:53:27.095Z,99509.88
2022-12-22T23:55:54.989Z,99523.84
2022-12-22T23:58:23.668Z,99535.31
